createdAt,value
2022-11-16T01:53:44.951Z,10.60
2022-11-16T01:56:13.439Z,10.60
2022-11-16T01:58:42.590Z,10.60
2022-11-16T02:09:39.585Z,10.60
2022-11-16T02:12:26.156Z,10.70
2022-11-16T02:15:22.822Z,10.60
2022-11-16T02:18:10.644Z,10.70
2022-11-16T02:23:27.105Z,10.70
2022-11-16T03:37:13.461Z,10.50
2022-11-16T03:39:43.692Z,11.00
2022-11-16T03:42:14.460Z,10.90
2022-11-16T03:44:45.287Z,10.90
2022-11-16T03:47:14.592Z,10.90
2022-11-16T03:49:47.541Z,10.80
2022-11-16T03:52:17.862Z,10.90
2022-11-16T03:54:46.336Z,10.80
2022-11-16T03:57:18.544Z,10.90
2022-11-16T03:59:47.124Z,10.90
2022-11-16T04:02:15.689Z,10.90
2022-11-16T04:05:02.071Z,10.90
2022-11-16T04:07:48.460Z,10.90
2022-11-16T04:10:34.703Z,10.90
2022-11-16T04:13:21.701Z,10.90
2022-11-16T04:16:08.065Z,10.90
2022-11-16T04:18:54.391Z,10.90
2022-11-16T04:21:43.992Z,10.90
2022-11-16T04:24:15.572Z,10.90
2022-11-16T04:27:04.514Z,10.90
2022-11-16T04:29:33.649Z,10.90
2022-11-16T04:32:20.214Z,10.90
2022-11-16T04:35:06.597Z,10.90
2022-11-16T04:37:50.249Z,10.90
2022-11-16T04:40:20.532Z,10.90
2022-11-16T04:42:53.250Z,10.90
2022-11-16T04:45:40.544Z,10.90
2022-11-16T04:48:09.654Z,10.90
2022-11-16T04:50:38.445Z,10.90
2022-11-16T04:53:07.360Z,10.90
2022-11-16T04:55:36.498Z,10.90
2022-11-16T04:58:05.704Z,10.90
2022-11-16T05:00:34.367Z,10.90
2022-11-16T05:03:04.883Z,10.90
2022-11-16T05:05:33.499Z,10.90
2022-11-16T05:08:02.018Z,10.90
2022-11-16T05:10:30.605Z,10.80
2022-11-16T05:12:59.152Z,10.80
2022-11-16T05:15:27.729Z,10.80
2022-11-16T05:17:56.624Z,10.80
2022-11-16T05:20:43.019Z,10.80
2022-11-16T05:23:13.207Z,10.80
2022-11-16T05:25:41.748Z,10.80
2022-11-16T05:28:10.217Z,10.80
2022-11-16T05:30:38.855Z,10.80
2022-11-16T05:33:07.398Z,10.80
2022-11-16T05:35:35.901Z,10.80
2022-11-16T05:38:04.440Z,10.70
2022-11-16T05:40:33.292Z,10.80
2022-11-16T05:43:01.816Z,10.80
2022-11-16T05:45:30.284Z,10.70
2022-11-16T05:47:58.858Z,10.70
2022-11-16T05:50:27.454Z,10.70
2022-11-16T05:52:55.978Z,10.70
2022-11-16T05:55:24.437Z,10.70
2022-11-16T05:57:52.933Z,10.70
2022-11-16T06:00:21.674Z,10.70
2022-11-16T06:02:50.256Z,10.70
2022-11-16T06:05:18.800Z,10.70
2022-11-16T06:07:47.331Z,10.60
2022-11-16T06:10:16.600Z,10.70
2022-11-16T06:12:45.146Z,10.60
2022-11-16T06:15:13.783Z,10.60
2022-11-16T06:17:42.281Z,10.60
2022-11-16T06:20:11.424Z,10.60
2022-11-16T06:22:39.952Z,10.50
2022-11-16T06:25:10.140Z,10.60
2022-11-16T06:27:41.554Z,10.50
2022-11-16T06:30:11.774Z,10.50
2022-11-16T06:32:40.364Z,10.50
2022-11-16T06:35:09.142Z,10.50
2022-11-16T06:37:38.275Z,10.50
2022-11-16T06:40:07.872Z,10.50
2022-11-16T06:42:36.376Z,10.50
2022-11-16T06:45:05.866Z,10.50
2022-11-16T06:47:34.679Z,10.40
2022-11-16T06:50:06.107Z,10.40
2022-11-16T06:52:34.754Z,10.40
2022-11-16T06:55:03.939Z,10.40
2022-11-16T06:57:35.141Z,10.40
2022-11-16T07:00:05.116Z,10.40
2022-11-16T07:02:33.637Z,10.30
2022-11-16T07:05:03.806Z,10.30
2022-11-16T07:07:33.006Z,10.30
2022-11-16T07:10:01.567Z,10.30
2022-11-16T07:12:30.092Z,10.30
2022-11-16T07:14:58.535Z,10.30
2022-11-16T07:17:27.172Z,10.30
2022-11-16T07:19:55.599Z,10.30
2022-11-16T07:22:24.158Z,10.30
2022-11-16T07:24:53.243Z,10.30
2022-11-16T07:27:21.703Z,10.30
2022-11-16T07:29:50.158Z,10.30
2022-11-16T07:32:18.614Z,10.30
2022-11-16T07:34:47.103Z,10.30
2022-11-16T07:37:15.645Z,10.40
2022-11-16T07:39:45.469Z,10.40
2022-11-16T07:42:13.946Z,10.40
2022-11-16T07:44:42.424Z,10.40
2022-11-16T07:47:10.948Z,10.40
2022-11-16T07:49:39.431Z,10.50
2022-11-16T07:52:10.351Z,10.40
2022-11-16T07:54:38.929Z,10.40
2022-11-16T07:57:07.432Z,10.40
2022-11-16T07:59:35.919Z,10.40
2022-11-16T08:02:04.411Z,10.50
2022-11-16T08:04:32.985Z,10.60
2022-11-16T08:07:01.474Z,10.70
2022-11-16T08:09:29.965Z,10.50
2022-11-16T08:11:58.484Z,10.50
2022-11-16T08:14:26.988Z,10.70
2022-11-16T08:16:55.454Z,11.20
2022-11-16T08:19:23.958Z,11.60
2022-11-16T08:21:52.451Z,11.70
2022-11-16T08:24:23.890Z,11.50
2022-11-16T08:26:54.020Z,11.30
2022-11-16T08:29:22.476Z,11.40
2022-11-16T08:31:51.078Z,10.90
2022-11-16T08:34:19.736Z,10.90
2022-11-16T08:36:48.361Z,11.00
2022-11-16T08:39:16.875Z,10.90
2022-11-16T08:41:45.498Z,11.00
2022-11-16T08:44:15.558Z,10.90
2022-11-16T08:46:44.042Z,11.00
2022-11-16T08:49:12.509Z,11.00
2022-11-16T08:51:41.035Z,11.10
2022-11-16T08:54:10.242Z,11.00
2022-11-16T08:56:38.707Z,10.90
2022-11-16T08:59:07.223Z,11.00
2022-11-16T09:01:35.878Z,11.20
2022-11-16T09:04:04.503Z,11.60
2022-11-16T09:06:33.302Z,11.90
2022-11-16T09:09:02.360Z,12.00
2022-11-16T09:11:31.291Z,12.30
2022-11-16T09:14:00.456Z,12.00
2022-11-16T09:16:29.349Z,12.50
2022-11-16T09:18:57.832Z,12.70
2022-11-16T09:21:28.634Z,13.30
2022-11-16T09:23:58.387Z,13.30
2022-11-16T09:26:26.964Z,13.50
2022-11-16T09:29:01.164Z,13.20
2022-11-16T09:31:32.629Z,13.40
2022-11-16T09:34:01.498Z,12.90
2022-11-16T09:36:30.290Z,13.30
2022-11-16T09:39:30.003Z,13.00
2022-11-16T09:41:49.652Z,12.90
2022-11-16T09:44:50.199Z,13.20
2022-11-16T09:47:22.556Z,14.00
2022-11-16T09:50:02.701Z,15.10
2022-11-16T09:52:37.919Z,14.00
2022-11-16T09:55:29.014Z,13.90
2022-11-16T09:58:00.773Z,13.90
2022-11-16T10:00:31.359Z,13.60
2022-11-16T10:03:07.669Z,12.60
2022-11-16T10:05:58.284Z,12.70
2022-11-16T10:08:29.936Z,13.00
2022-11-16T10:11:07.448Z,13.00
2022-11-16T10:13:41.867Z,14.90
2022-11-16T10:16:22.085Z,15.30
2022-11-16T10:19:11.467Z,14.50
2022-11-16T10:22:01.076Z,15.60
2022-11-16T10:24:38.647Z,15.90
2022-11-16T10:27:29.621Z,15.80
2022-11-16T10:30:13.890Z,14.90
2022-11-16T10:33:06.797Z,13.90
2022-11-16T10:35:41.156Z,12.80
2022-11-16T10:38:18.349Z,14.00
2022-11-16T10:40:49.972Z,14.60
2022-11-16T10:43:27.416Z,16.40
2022-11-16T10:46:02.008Z,17.10
2022-11-16T10:48:50.243Z,17.70
2022-11-16T10:51:19.011Z,16.40
2022-11-16T10:53:47.737Z,17.30
2022-11-16T10:56:36.116Z,15.10
2022-11-16T10:59:09.612Z,14.70
2022-11-16T11:01:43.569Z,17.40
2022-11-16T11:04:25.902Z,17.80
2022-11-16T11:07:09.141Z,19.00
2022-11-16T11:09:41.105Z,19.00
2022-11-16T11:12:36.345Z,18.50
2022-11-16T11:15:13.734Z,18.50
2022-11-16T11:17:45.124Z,19.40
2022-11-16T11:20:19.636Z,18.50
2022-11-16T11:22:56.749Z,20.00
2022-11-16T11:25:38.416Z,20.40
2022-11-16T11:28:28.661Z,20.30
2022-11-16T11:31:00.272Z,20.70
2022-11-16T11:33:49.681Z,22.50
2022-11-16T11:36:29.885Z,22.30
2022-11-16T11:39:07.300Z,24.90
2022-11-16T11:41:41.680Z,22.80
2022-11-16T11:44:18.908Z,19.90
2022-11-16T11:47:50.429Z,20.10
2022-11-16T11:49:34.020Z,21.50
2022-11-16T11:52:05.734Z,22.30
2022-11-16T11:54:41.692Z,22.70
2022-11-16T11:57:10.702Z,20.70
2022-11-16T11:59:39.571Z,20.40
2022-11-16T12:02:36.543Z,21.00
2022-11-16T12:05:32.482Z,22.20
2022-11-16T12:08:23.768Z,23.70
2022-11-16T12:10:55.367Z,24.50
2022-11-16T12:13:29.619Z,22.30
2022-11-16T12:16:26.741Z,20.20
2022-11-16T12:19:25.224Z,20.50
2022-11-16T12:22:05.688Z,19.50
2022-11-16T12:24:43.237Z,17.90
2022-11-16T12:27:24.816Z,15.80
2022-11-16T12:30:17.553Z,15.10
2022-11-16T12:33:07.482Z,14.90
2022-11-16T12:35:50.952Z,15.30
2022-11-16T12:38:36.941Z,15.00
2022-11-16T12:41:11.289Z,15.30
2022-11-16T12:43:51.570Z,15.30
2022-11-16T12:46:25.910Z,15.50
2022-11-16T12:49:07.176Z,15.20
2022-11-16T12:51:56.847Z,15.20
2022-11-16T12:54:37.070Z,15.00
2022-11-16T12:57:34.200Z,14.90
2022-11-16T13:00:05.768Z,14.80
2022-11-16T13:02:46.137Z,18.30
2022-11-16T13:05:23.330Z,20.40
2022-11-16T13:07:57.467Z,20.90
2022-11-16T13:10:29.091Z,19.00
2022-11-16T13:15:37.124Z,20.10
2022-11-16T13:18:08.762Z,22.00
2022-11-16T13:20:43.735Z,21.00
2022-11-16T13:23:32.645Z,20.40
2022-11-16T13:26:31.956Z,20.80
2022-11-16T13:29:15.798Z,21.10
2022-11-16T13:31:59.354Z,20.60
2022-11-16T13:34:33.531Z,20.80
2022-11-16T13:37:02.039Z,21.10
2022-11-16T13:40:00.281Z,18.70
2022-11-16T13:42:30.345Z,17.30
2022-11-16T13:45:19.937Z,19.00
2022-11-16T13:47:59.411Z,21.20
2022-11-16T13:50:37.434Z,21.50
2022-11-16T13:55:43.418Z,21.80
2022-11-16T13:58:15.165Z,20.90
2022-11-16T14:00:45.412Z,19.70
2022-11-16T14:03:19.909Z,19.00
2022-11-16T14:05:50.276Z,17.30
2022-11-16T14:08:27.083Z,16.60
2022-11-16T14:10:58.760Z,16.00
2022-11-16T14:13:46.496Z,15.70
2022-11-16T14:16:21.340Z,15.90
2022-11-16T14:18:59.226Z,16.10
2022-11-16T14:21:39.881Z,15.30
2022-11-16T14:24:28.106Z,14.80
2022-11-16T14:27:12.649Z,14.40
2022-11-16T14:29:50.101Z,14.40
2022-11-16T14:32:24.257Z,14.80
2022-11-16T14:34:55.915Z,14.60
2022-11-16T14:37:30.412Z,14.30
2022-11-16T14:40:19.463Z,14.10
2022-11-16T14:45:25.383Z,14.20
2022-11-16T14:47:59.435Z,14.20
2022-11-16T14:50:29.699Z,14.00
2022-11-16T14:53:01.318Z,13.70
2022-11-16T14:55:30.172Z,13.40
2022-11-16T14:58:13.147Z,13.20
2022-11-16T15:00:41.704Z,13.40
2022-11-16T15:03:13.153Z,13.30
2022-11-16T15:05:41.701Z,13.20
2022-11-16T15:08:16.033Z,13.50
2022-11-16T15:10:52.353Z,13.50
2022-11-16T15:13:21.709Z,13.40
2022-11-16T15:15:52.085Z,13.30
2022-11-16T15:18:23.064Z,13.10
2022-11-16T15:20:53.526Z,13.30
2022-11-16T15:23:26.182Z,13.20
2022-11-16T15:25:59.375Z,13.30
2022-11-16T15:28:30.518Z,12.90
2022-11-16T15:31:01.619Z,12.90
2022-11-16T15:33:33.935Z,12.80
2022-11-16T15:36:04.284Z,12.80
2022-11-16T15:38:34.670Z,12.90
2022-11-16T15:41:05.555Z,12.70
2022-11-16T15:43:45.174Z,12.70
2022-11-16T15:46:08.684Z,12.70
2022-11-16T15:48:39.423Z,12.50
2022-11-16T15:51:16.967Z,12.50
2022-11-16T15:53:47.616Z,12.40
2022-11-16T15:56:27.791Z,12.30
2022-11-16T15:59:01.781Z,12.40
2022-11-16T16:01:31.725Z,12.20
2022-11-16T16:04:03.686Z,12.10
2022-11-16T16:06:50.380Z,12.30
2022-11-16T16:09:36.834Z,12.30
2022-11-16T16:12:26.750Z,12.20
2022-11-16T16:14:58.360Z,12.10
2022-11-16T16:17:29.708Z,11.90
2022-11-16T16:20:07.495Z,11.80
2022-11-16T16:22:37.860Z,11.70
2022-11-16T16:25:08.656Z,11.80
2022-11-16T16:27:41.707Z,11.80
2022-11-16T16:30:14.022Z,11.70
2022-11-16T16:32:42.711Z,11.60
2022-11-16T16:35:17.648Z,11.80
2022-11-16T16:40:16.053Z,11.60
2022-11-16T16:42:46.674Z,11.70
2022-11-16T16:45:23.900Z,11.70
2022-11-16T16:47:52.406Z,11.70
2022-11-16T16:50:20.957Z,11.70
2022-11-16T16:52:49.482Z,11.70
2022-11-16T16:55:18.637Z,11.70
2022-11-16T16:57:47.185Z,11.70
2022-11-16T17:00:17.617Z,11.70
2022-11-16T17:02:46.134Z,11.80
2022-11-16T17:05:15.171Z,11.90
2022-11-16T17:07:43.737Z,11.90
2022-11-16T17:10:12.649Z,11.90
2022-11-16T17:12:41.160Z,11.90
2022-11-16T17:15:13.845Z,12.00
2022-11-16T17:17:42.245Z,11.90
2022-11-16T17:20:11.866Z,12.00
2022-11-16T17:22:41.921Z,12.00
2022-11-16T17:25:13.258Z,12.00
2022-11-16T17:27:43.348Z,12.00
2022-11-16T17:30:13.839Z,12.00
2022-11-16T17:32:42.398Z,12.00
2022-11-16T17:35:14.723Z,12.00
2022-11-16T17:37:43.332Z,11.90
2022-11-16T17:40:12.121Z,11.90
2022-11-16T17:42:40.820Z,12.00
2022-11-16T17:45:10.058Z,12.00
2022-11-16T17:47:39.071Z,11.90
2022-11-16T17:50:08.976Z,12.00
2022-11-16T17:52:37.476Z,12.00
2022-11-16T17:55:06.535Z,12.00
2022-11-16T17:57:35.084Z,12.00
2022-11-16T18:00:03.956Z,12.00
2022-11-16T18:02:32.446Z,12.00
2022-11-16T18:05:00.893Z,12.00
2022-11-16T18:07:33.023Z,12.00
2022-11-16T18:10:01.572Z,12.00
2022-11-16T18:12:30.103Z,12.00
2022-11-16T18:15:21.710Z,11.90
2022-11-16T18:17:28.781Z,11.90
2022-11-16T18:19:57.427Z,11.90
2022-11-16T18:22:25.980Z,11.90
2022-11-16T18:24:54.518Z,11.90
2022-11-16T18:27:23.141Z,11.80
2022-11-16T18:29:51.660Z,11.70
2022-11-16T18:32:20.166Z,11.50
2022-11-16T18:34:48.712Z,11.50
2022-11-16T18:37:17.300Z,11.30
2022-11-16T18:39:45.876Z,11.20
2022-11-16T18:42:14.459Z,11.30
2022-11-16T18:44:43.576Z,11.20
2022-11-16T18:47:12.128Z,11.00
2022-11-16T18:49:40.741Z,10.90
2022-11-16T18:52:09.266Z,10.90
2022-11-16T18:54:38.017Z,10.80
2022-11-16T18:57:06.550Z,10.80
2022-11-16T18:59:35.193Z,10.70
2022-11-16T19:02:05.440Z,10.60
2022-11-16T19:04:33.979Z,10.60
2022-11-16T19:07:02.592Z,10.40
2022-11-16T19:09:31.269Z,10.30
2022-11-16T19:11:59.743Z,10.30
2022-11-16T19:14:28.319Z,10.20
2022-11-16T19:16:57.506Z,10.10
2022-11-16T19:19:27.743Z,10.10
2022-11-16T19:21:56.933Z,10.20
2022-11-16T19:24:25.601Z,10.20
2022-11-16T19:26:54.049Z,10.20
2022-11-16T19:29:22.606Z,10.10
2022-11-16T19:31:51.092Z,10.00
2022-11-16T19:34:19.564Z,10.00
2022-11-16T19:36:48.043Z,9.90
2022-11-16T19:39:16.675Z,10.00
2022-11-16T19:41:45.267Z,10.00
2022-11-16T19:44:13.699Z,10.00
2022-11-16T19:46:42.216Z,9.90
2022-11-16T19:49:17.025Z,10.00
2022-11-16T19:51:44.118Z,10.00
2022-11-16T19:54:14.708Z,9.90
2022-11-16T19:56:44.254Z,9.90
2022-11-16T19:59:12.723Z,9.80
2022-11-16T20:01:41.274Z,9.80
2022-11-16T20:04:09.869Z,9.80
2022-11-16T20:06:40.630Z,9.80
2022-11-16T20:09:12.074Z,9.80
2022-11-16T20:11:41.830Z,9.80
2022-11-16T20:14:12.231Z,9.80
2022-11-16T20:16:42.538Z,9.70
2022-11-16T20:19:12.027Z,9.70
2022-11-16T20:21:42.399Z,9.70
2022-11-16T20:24:15.992Z,9.60
2022-11-16T20:26:47.140Z,9.70
2022-11-16T20:29:17.707Z,9.70
2022-11-16T20:31:46.608Z,9.70
2022-11-16T20:34:17.354Z,9.80
2022-11-16T20:36:47.549Z,9.90
2022-11-16T20:39:18.546Z,10.10
2022-11-16T20:41:48.017Z,10.10
2022-11-16T20:44:22.210Z,10.00
2022-11-16T20:46:52.595Z,9.90
2022-11-16T20:49:21.700Z,10.00
2022-11-16T20:51:51.259Z,10.00
2022-11-16T20:54:19.875Z,9.90
2022-11-16T20:56:50.891Z,10.00
2022-11-16T20:59:19.800Z,9.90
2022-11-16T21:01:50.114Z,9.90
2022-11-16T21:04:18.776Z,9.80
2022-11-16T21:06:49.239Z,9.80
2022-11-16T21:09:19.392Z,9.80
2022-11-16T21:11:52.349Z,9.70
2022-11-16T21:14:21.274Z,9.70
2022-11-16T21:16:50.119Z,9.80
2022-11-16T21:19:18.709Z,9.70
2022-11-16T21:21:47.242Z,9.80
2022-11-16T21:24:16.152Z,9.80
2022-11-16T21:26:44.687Z,9.80
2022-11-16T21:29:13.131Z,9.80
2022-11-16T21:31:41.716Z,9.90
2022-11-16T21:34:10.247Z,9.90
2022-11-16T21:36:39.331Z,10.00
2022-11-16T21:39:08.041Z,10.00
2022-11-16T21:41:36.524Z,9.90
2022-11-16T21:44:05.084Z,10.00
2022-11-16T21:46:33.639Z,10.10
2022-11-16T21:49:02.183Z,10.10
2022-11-16T21:51:30.797Z,10.10
2022-11-16T21:53:59.300Z,10.10
2022-11-16T21:56:27.746Z,10.10
2022-11-16T21:58:57.808Z,10.10
2022-11-16T22:01:28.088Z,10.00
2022-11-16T22:04:14.544Z,10.10
2022-11-16T22:07:01.197Z,10.00
2022-11-16T22:09:29.677Z,10.00
2022-11-16T22:12:02.464Z,10.00
2022-11-16T22:14:28.394Z,10.00
2022-11-16T22:16:56.955Z,10.00
2022-11-16T22:19:25.421Z,10.00
2022-11-16T22:21:54.022Z,10.00
2022-11-16T22:24:22.582Z,10.10
2022-11-16T22:26:51.584Z,10.00
2022-11-16T22:29:20.104Z,10.10
2022-11-16T22:31:48.567Z,10.10
2022-11-16T22:34:17.031Z,10.20
2022-11-16T22:36:45.526Z,10.10
2022-11-16T22:39:14.203Z,10.20
2022-11-16T22:41:42.772Z,10.20
2022-11-16T22:44:12.859Z,10.20
2022-11-16T22:46:41.377Z,10.20
2022-11-16T22:49:10.021Z,10.20
2022-11-16T22:51:39.413Z,10.30
2022-11-16T22:54:08.658Z,10.30
2022-11-16T22:56:37.207Z,10.30
2022-11-16T22:59:05.921Z,10.40
2022-11-16T23:01:34.647Z,10.40
2022-11-16T23:04:03.188Z,10.50
2022-11-16T23:06:32.224Z,10.50
2022-11-16T23:09:00.900Z,10.40
2022-11-16T23:11:47.660Z,10.60
2022-11-16T23:14:35.624Z,10.60
2022-11-16T23:17:05.213Z,10.70
2022-11-16T23:19:52.672Z,10.70
2022-11-16T23:22:40.219Z,10.80
2022-11-16T23:25:28.760Z,10.70
2022-11-16T23:28:08.545Z,10.80
2022-11-16T23:30:37.527Z,10.80
2022-11-16T23:33:06.001Z,10.90
2022-11-16T23:35:34.536Z,11.00
2022-11-16T23:38:06.308Z,11.00
2022-11-16T23:40:40.171Z,11.10
2022-11-16T23:43:28.753Z,11.10
2022-11-16T23:45:57.220Z,11.10
2022-11-16T23:48:25.704Z,11.20
2022-11-16T23:50:54.264Z,11.30
2022-11-16T23:53:22.848Z,11.40
2022-11-16T23:55:51.340Z,11.40
2022-11-16T23:58:19.874Z,11.50
